createdAt,value
2023-02-19T00:52:39.668Z,1009.0660354695398
2023-02-19T00:57:40.926Z,1009.1527899640143
2023-02-19T01:02:42.179Z,1009.2846421537469
2023-02-19T01:07:43.341Z,1009.3337631822757
2023-02-19T01:12:44.602Z,1009.2523219191024
2023-02-19T01:17:45.905Z,1009.2580318256489
2023-02-19T01:22:47.107Z,1009.3435412344434
2023-02-19T01:27:48.377Z,1009.3396448840186
2023-02-19T01:32:49.585Z,1009.2791185791964
2023-02-19T01:37:50.850Z,1009.1514172647236
2023-02-19T01:48:02.365Z,1009.20567732829
2023-02-19T01:53:06.621Z,1009.2861944450777
2023-02-19T01:58:09.828Z,1009.3326566523898
2023-02-19T02:03:12.081Z,1009.2489454315274
2023-02-19T02:08:12.309Z,1009.2351864399518
2023-02-19T02:13:13.581Z,1009.3658294792938
2023-02-19T02:18:26.764Z,1009.4566867503895
2023-02-19T02:23:38.020Z,1009.3896079664484
2023-02-19T02:28:53.208Z,1009.4902297470195
2023-02-19T02:34:01.434Z,1009.5591746684435
2023-02-19T02:39:06.665Z,1009.4129121993813
2023-02-19T02:44:07.920Z,1009.4821730628964
2023-02-19T02:49:14.136Z,1009.5329946948369
2023-02-19T02:54:20.358Z,1009.6750400896356
2023-02-19T02:59:23.662Z,1009.6896495742116
2023-02-19T03:04:32.848Z,1009.6602483155775
2023-02-19T03:09:41.098Z,1009.7270597173876
2023-02-19T03:14:48.339Z,1009.7712218597563
2023-02-19T03:19:54.543Z,1009.8471188504863
2023-02-19T03:24:59.789Z,1009.74061930871
2023-02-19T03:30:08.059Z,1009.673290340942
2023-02-19T03:35:13.236Z,1009.7431226965987
2023-02-19T03:40:14.525Z,1009.8495829988943
2023-02-19T03:45:23.716Z,1009.9571807863632
2023-02-19T03:50:30.976Z,1009.9107362665163
2023-02-19T03:55:40.188Z,1009.942377712018
2023-02-19T04:00:44.473Z,1010.1331870217347
2023-02-19T04:05:50.686Z,1010.029133420396
2023-02-19T04:10:53.932Z,1010.2068378009916
2023-02-19T04:16:01.150Z,1010.1287168950396
2023-02-19T04:21:07.423Z,1010.0953542761195
2023-02-19T04:26:09.645Z,1009.929086140884
2023-02-19T04:31:11.259Z,1009.8308866503605
2023-02-19T04:36:13.100Z,1009.8423072932783
2023-02-19T04:46:19.654Z,1010.0062651172535
2023-02-19T04:56:26.091Z,1010.0849408323671
2023-02-19T05:01:26.359Z,1009.9972302142219
2023-02-19T05:06:27.620Z,1009.8573072557831
2023-02-19T05:11:28.822Z,1009.8311120717931
2023-02-19T05:16:31.110Z,1009.667121781612
2023-02-19T05:21:32.314Z,1009.6062640608146
2023-02-19T05:26:36.562Z,1009.5909054096985
2023-02-19T05:31:39.944Z,1009.5181548090573
2023-02-19T05:36:42.044Z,1009.6288173852456
2023-02-19T05:41:44.283Z,1009.7241484631752
2023-02-19T05:46:45.619Z,1009.7092708452616
2023-02-19T05:51:49.761Z,1009.6146020121103
2023-02-19T05:56:56.028Z,1009.61728866441
2023-02-19T06:01:58.253Z,1009.5098408713633
2023-02-19T06:06:58.495Z,1009.5339419247728
2023-02-19T06:12:00.713Z,1009.4618223226779
2023-02-19T06:17:02.015Z,1009.6357926122769
2023-02-19T06:27:08.529Z,1009.5688126663024
2023-02-19T06:32:09.803Z,1009.6638886004849
2023-02-19T06:37:10.986Z,1009.7835373213425
2023-02-19T06:42:12.232Z,1009.6551688781675
2023-02-19T06:47:13.487Z,1009.5619157901108
2023-02-19T06:57:19.929Z,1009.4833748557265
2023-02-19T07:07:26.409Z,1009.3682676456555
2023-02-19T07:12:27.657Z,1009.3051364653869
2023-02-19T07:17:28.917Z,1009.2868476184589
2023-02-19T07:22:30.174Z,1009.2377715741194
2023-02-19T07:27:31.412Z,1009.2015441245021
2023-02-19T07:32:32.668Z,1009.0827428911617
2023-02-19T07:37:33.921Z,1009.1085943195732
2023-02-19T07:47:40.468Z,1008.9836636694816
2023-02-19T07:52:41.640Z,1008.8709971994563
2023-02-19T08:02:48.146Z,1008.837462412487
2023-02-19T08:07:49.381Z,1008.8928517106277
2023-02-19T08:12:55.593Z,1008.8004396835042
2023-02-19T08:17:56.874Z,1008.8511575619173
2023-02-19T08:28:03.374Z,1009.0095026260994
2023-02-19T08:38:10.836Z,1009.1333629627379
2023-02-19T08:43:13.121Z,1009.1197603255735
2023-02-19T08:48:14.310Z,1009.2377833768282
2023-02-19T08:53:15.557Z,1009.142071631277
2023-02-19T09:03:22.078Z,1008.8906682891268
2023-02-19T09:08:23.341Z,1009.1124502425839
2023-02-19T09:18:29.756Z,1009.0659780458903
2023-02-19T09:23:33.027Z,1008.846591303925
2023-02-19T09:28:34.316Z,1008.7097917666939
2023-02-19T09:33:36.523Z,1008.7170930130288
2023-02-19T09:43:47.004Z,1008.695361859269
2023-02-19T09:48:48.247Z,1008.709354631567
2023-02-19T09:53:53.460Z,1008.6082397863627
2023-02-19T09:58:57.754Z,1008.8812141413732
2023-02-19T10:03:59.946Z,1008.8119638378798
2023-02-19T10:09:11.166Z,1008.6838623421834
2023-02-19T10:14:15.436Z,1008.7799123379671
2023-02-19T10:19:17.634Z,1008.8758268406324
2023-02-19T10:24:23.938Z,1008.8452621710317
2023-02-19T10:29:25.177Z,1008.7218587886885
2023-02-19T10:34:27.365Z,1008.7757234132729
2023-02-19T10:39:36.600Z,1008.592097227273
2023-02-19T10:44:43.868Z,1008.5199775448635
2023-02-19T10:49:53.054Z,1008.4593365743968
2023-02-19T10:55:02.329Z,1008.3394340959345
2023-02-19T11:00:07.542Z,1008.4431784049182
2023-02-19T11:05:16.759Z,1008.1049968324905
2023-02-19T11:10:24.966Z,1007.8464672826759
2023-02-19T11:15:28.225Z,1007.5375263456773
2023-02-19T11:20:30.499Z,1007.3260547347627
2023-02-19T11:25:34.745Z,1007.0150527445402
2023-02-19T11:30:42.035Z,1007.0323814072094
2023-02-19T11:35:48.193Z,1007.144592681299
2023-02-19T11:46:06.616Z,1007.2190036247334
2023-02-19T11:51:18.848Z,1007.4950117214686
2023-02-19T11:56:31.081Z,1007.2578256892713
2023-02-19T12:01:46.377Z,1007.28964862238
2023-02-19T12:06:55.531Z,1007.3912187586161
2023-02-19T12:12:05.698Z,1007.3805107347017
2023-02-19T12:17:14.306Z,1007.412533918137
2023-02-19T12:22:28.194Z,1007.3635735437342
2023-02-19T12:27:43.422Z,1007.2626476861356
2023-02-19T12:32:57.593Z,1007.2493057722593
2023-02-19T12:38:09.815Z,1007.2863362022389
2023-02-19T12:43:18.057Z,1007.3977041802628
2023-02-19T12:48:28.275Z,1007.3505656135297
2023-02-19T12:53:37.541Z,1007.4704838435807
2023-02-19T12:58:44.783Z,1007.5379359373322
2023-02-19T13:03:49.990Z,1007.3990831015217
2023-02-19T13:09:06.253Z,1007.408961634188
2023-02-19T13:14:11.408Z,1007.321070611616
2023-02-19T13:19:14.647Z,1007.5296282726118
2023-02-19T13:24:16.925Z,1007.3873781469176
2023-02-19T13:29:34.118Z,1007.5771159954671
2023-02-19T13:34:46.346Z,1007.4669029903183
2023-02-19T13:39:49.590Z,1007.4980426844596
2023-02-19T13:44:55.837Z,1007.6362053383086
2023-02-19T13:50:05.050Z,1007.3897585123618
2023-02-19T13:55:11.291Z,1007.3381645554152
2023-02-19T14:00:16.527Z,1007.4889323110148
2023-02-19T14:10:33.989Z,1007.1375978101479
2023-02-19T14:15:49.265Z,1007.1534867675911
2023-02-19T14:21:04.395Z,1007.0750231686588
2023-02-19T14:26:07.635Z,1006.9976011131643
2023-02-19T14:31:18.447Z,1006.9924911839292
2023-02-19T14:36:31.085Z,1006.9927800738292
2023-02-19T14:41:33.317Z,1007.2112099318697
2023-02-19T14:46:38.651Z,1007.1876477990036
2023-02-19T14:51:45.823Z,1007.1165808151118
2023-02-19T14:56:52.044Z,1007.0371023628085
2023-02-19T15:01:59.261Z,1007.0903936700861
2023-02-19T15:07:01.508Z,1006.9498149273627
2023-02-19T15:12:03.754Z,1006.9955541126394
2023-02-19T15:17:05.985Z,1006.8196768195918
2023-02-19T15:22:11.231Z,1006.6962082611749
2023-02-19T15:27:17.476Z,1006.8547883351561
2023-02-19T15:32:19.769Z,1006.9296561667231
2023-02-19T15:37:22.944Z,1006.9198381677402
2023-02-19T15:42:26.235Z,1006.9779044457174
2023-02-19T15:47:25.461Z,1007.1120911553372
2023-02-19T15:52:29.710Z,1007.3174114963691
2023-02-19T15:57:30.952Z,1007.3389898631269
2023-02-19T16:02:27.791Z,1007.4308533303541
2023-02-19T16:07:27.418Z,1007.5668123445867
2023-02-19T16:12:24.703Z,1007.6034362260193
2023-02-19T16:17:22.983Z,1007.725825091956
2023-02-19T16:22:20.222Z,1007.8670689531606
2023-02-19T16:27:21.472Z,1007.9908829741967
2023-02-19T16:32:22.873Z,1008.1123872850641
2023-02-19T16:37:28.971Z,1008.2581058407245
2023-02-19T16:42:43.166Z,1008.2155953578956
2023-02-19T16:47:44.397Z,1008.2979839258948
2023-02-19T16:52:50.691Z,1008.2563824503238
2023-02-19T16:57:46.900Z,1008.4256320333141
2023-02-19T17:02:49.168Z,1008.4285458977121
2023-02-19T17:07:47.418Z,1008.4864687944151
2023-02-19T17:12:44.689Z,1008.5731752034962
2023-02-19T17:17:40.922Z,1008.5995952049958
2023-02-19T17:22:36.210Z,1008.6197473356384
2023-02-19T17:27:32.424Z,1008.7017663809456
2023-02-19T17:32:28.848Z,1008.7732681846267
2023-02-19T17:37:24.968Z,1008.768986586579
2023-02-19T17:42:21.260Z,1008.9524570930869
2023-02-19T17:47:17.480Z,1009.1370224968539
2023-02-19T17:52:13.748Z,1009.1329903174259
2023-02-19T17:57:10.021Z,1009.1332586241849
2023-02-19T18:02:06.290Z,1009.1302513499809
2023-02-19T18:07:02.518Z,1009.0633752258237
2023-02-19T18:11:58.806Z,1009.2149107907
2023-02-19T18:16:55.125Z,1009.2296800169408
2023-02-19T18:21:51.286Z,1009.4708347754429
2023-02-19T18:26:49.575Z,1009.5451562470903
2023-02-19T18:31:45.911Z,1009.73773007462
2023-02-19T18:36:44.092Z,1009.7624800869759
2023-02-19T18:41:46.291Z,1009.8640117559704
2023-02-19T18:46:42.587Z,1010.0379878840675
2023-02-19T18:51:40.851Z,1010.0693553172999
2023-02-19T18:56:41.105Z,1010.1630885482436
2023-02-19T19:01:37.360Z,1010.1717625520365
2023-02-19T19:06:40.581Z,1010.2166846998796
2023-02-19T19:11:36.837Z,1010.2117884799013
2023-02-19T19:16:33.123Z,1010.2092618682526
2023-02-19T19:21:29.368Z,1010.1953282931436
2023-02-19T19:26:25.624Z,1010.2403488946037
2023-02-19T19:31:22.048Z,1010.3269431354754
2023-02-19T19:36:19.148Z,1010.4621745265617
2023-02-19T19:41:15.402Z,1010.4907528483429
2023-02-19T19:46:11.800Z,1010.5309513142496
2023-02-19T19:51:07.920Z,1010.7461066426603
2023-02-19T19:56:04.180Z,1010.817261444592
2023-02-19T20:01:00.444Z,1010.9633298834436
2023-02-19T20:05:56.727Z,1010.9159305786892
2023-02-19T20:10:52.930Z,1010.7374181646398
2023-02-19T20:15:51.277Z,1010.704577935752
2023-02-19T20:20:48.458Z,1010.7716091294146
2023-02-19T20:25:44.740Z,1010.7757214900219
2023-02-19T20:30:43.039Z,1010.7149752092125
2023-02-19T20:35:39.252Z,1010.7581845663726
2023-02-19T20:40:36.520Z,1010.8063886867753
2023-02-19T20:45:31.797Z,1010.8340689315654
2023-02-19T20:50:28.054Z,1010.9031870384798
2023-02-19T20:55:25.284Z,1010.8496220288919
2023-02-19T21:00:20.613Z,1011.0149511211071
2023-02-19T21:05:16.815Z,1011.0172539924502
2023-02-19T21:10:13.048Z,1011.0274129221516
2023-02-19T21:15:09.315Z,1011.0829419409044
2023-02-19T21:20:06.611Z,1011.1236657473963
2023-02-19T21:25:02.853Z,1011.1160507199957
2023-02-19T21:29:59.117Z,1011.1710432798956
2023-02-19T21:34:56.371Z,1011.2874172364197
2023-02-19T21:39:53.657Z,1011.4515846031254
2023-02-19T21:44:49.874Z,1011.4291339763641
2023-02-19T21:49:46.138Z,1011.6173898560479
2023-02-19T21:54:45.372Z,1011.7241009504555
2023-02-19T21:59:41.610Z,1011.711801323854
2023-02-19T22:04:37.869Z,1011.7399680842078
2023-02-19T22:09:34.155Z,1011.6679644923217
2023-02-19T22:14:30.435Z,1011.7169904887497
2023-02-19T22:19:26.647Z,1011.7656641893626
2023-02-19T22:24:22.974Z,1011.9609518229153
2023-02-19T22:29:19.234Z,1012.0385838712302
2023-02-19T22:34:14.450Z,1012.130382616379
2023-02-19T22:39:14.706Z,1012.3540980065114
2023-02-19T22:44:10.951Z,1012.3595874908625
2023-02-19T22:49:07.271Z,1012.4573008732609
2023-02-19T22:54:03.507Z,1012.4187431739607
2023-02-19T22:58:59.732Z,1012.4310143823828
2023-02-19T23:03:57.149Z,1012.5770662817575
2023-02-19T23:08:52.304Z,1012.7669564046175
2023-02-19T23:13:47.516Z,1012.8173483569427
2023-02-19T23:18:43.765Z,1012.9322160112195
2023-02-19T23:23:40.033Z,1012.8770248545496
2023-02-19T23:28:35.345Z,1012.9947419150753
2023-02-19T23:33:31.601Z,1012.9957281230868
2023-02-19T23:38:27.869Z,1012.9324262376495
2023-02-19T23:43:24.094Z,1013.0221645040301
2023-02-19T23:48:20.366Z,1013.192395061594
2023-02-19T23:53:16.611Z,1013.3015291700583
2023-02-19T23:58:12.835Z,1013.358274227213
